sensor_id;sensor_type;location;lat;lon;timestamp;temperature;humidity
2997;DHT22;1508;48.744;9.110;2023-07-13T00:01:09;18.20;99.90
2997;DHT22;1508;48.744;9.110;2023-07-13T00:03:56;18.10;99.90
2997;DHT22;1508;48.744;9.110;2023-07-13T00:06:42;18.10;99.90
2997;DHT22;1508;48.744;9.110;2023-07-13T00:09:27;18.10;99.90
2997;DHT22;1508;48.744;9.110;2023-07-13T00:12:23;18.00;99.90
2997;DHT22;1508;48.744;9.110;2023-07-13T00:15:12;18.00;99.90
2997;DHT22;1508;48.744;9.110;2023-07-13T00:17:58;17.90;99.90
2997;DHT22;1508;48.744;9.110;2023-07-13T00:20:44;17.90;99.90
2997;DHT22;1508;48.744;9.110;2023-07-13T00:23:30;17.90;99.90
2997;DHT22;1508;48.744;9.110;2023-07-13T00:26:16;17.80;99.90
2997;DHT22;1508;48.744;9.110;2023-07-13T00:29:01;17.80;99.90
2997;DHT22;1508;48.744;9.110;2023-07-13T00:31:47;17.70;99.90
2997;DHT22;1508;48.744;9.110;2023-07-13T00:34:33;17.70;99.90
2997;DHT22;1508;48.744;9.110;2023-07-13T00:37:19;17.60;99.90
2997;DHT22;1508;48.744;9.110;2023-07-13T00:40:05;17.60;99.90
2997;DHT22;1508;48.744;9.110;2023-07-13T00:42:52;17.60;99.90
2997;DHT22;1508;48.744;9.110;2023-07-13T00:48:32;17.60;99.90
2997;DHT22;1508;48.744;9.110;2023-07-13T00:51:21;17.60;99.90
2997;DHT22;1508;48.744;9.110;2023-07-13T00:54:08;17.60;99.90
2997;DHT22;1508;48.744;9.110;2023-07-13T00:56:55;17.60;99.90
2997;DHT22;1508;48.744;9.110;2023-07-13T00:59:44;17.60;99.90
2997;DHT22;1508;48.744;9.110;2023-07-13T01:02:30;17.60;99.90
2997;DHT22;1508;48.744;9.110;2023-07-13T01:05:18;17.60;99.90
2997;DHT22;1508;48.744;9.110;2023-07-13T01:08:04;17.60;99.90
2997;DHT22;1508;48.744;9.110;2023-07-13T01:10:51;17.60;99.90
2997;DHT22;1508;48.744;9.110;2023-07-13T01:13:37;17.60;99.90
2997;DHT22;1508;48.744;9.110;2023-07-13T01:16:26;17.60;99.90
2997;DHT22;1508;48.744;9.110;2023-07-13T01:22:08;17.50;99.90
2997;DHT22;1508;48.744;9.110;2023-07-13T01:24:54;17.50;99.90
2997;DHT22;1508;48.744;9.110;2023-07-13T01:27:40;17.40;99.90
2997;DHT22;1508;48.744;9.110;2023-07-13T01:30:26;17.40;99.90
2997;DHT22;1508;48.744;9.110;2023-07-13T01:33:15;17.40;99.90
2997;DHT22;1508;48.744;9.110;2023-07-13T01:36:01;17.40;99.90
2997;DHT22;1508;48.744;9.110;2023-07-13T01:38:47;17.30;99.90
2997;DHT22;1508;48.744;9.110;2023-07-13T01:41:33;17.30;99.90
2997;DHT22;1508;48.744;9.110;2023-07-13T01:44:18;17.30;99.90
2997;DHT22;1508;48.744;9.110;2023-07-13T01:47:04;17.20;99.90
2997;DHT22;1508;48.744;9.110;2023-07-13T01:49:50;17.10;99.90
2997;DHT22;1508;48.744;9.110;2023-07-13T01:52:36;17.00;99.90
2997;DHT22;1508;48.744;9.110;2023-07-13T01:55:22;16.90;99.90
2997;DHT22;1508;48.744;9.110;2023-07-13T01:58:08;16.90;99.90
2997;DHT22;1508;48.744;9.110;2023-07-13T02:00:53;17.00;99.90
2997;DHT22;1508;48.744;9.110;2023-07-13T02:03:39;16.90;99.90
2997;DHT22;1508;48.744;9.110;2023-07-13T02:06:25;16.90;99.90
2997;DHT22;1508;48.744;9.110;2023-07-13T02:09:11;16.80;99.90
2997;DHT22;1508;48.744;9.110;2023-07-13T02:11:56;16.70;99.90
2997;DHT22;1508;48.744;9.110;2023-07-13T02:14:42;16.60;99.90
2997;DHT22;1508;48.744;9.110;2023-07-13T02:17:28;16.60;99.90
2997;DHT22;1508;48.744;9.110;2023-07-13T02:20:14;16.60;99.90
2997;DHT22;1508;48.744;9.110;2023-07-13T02:22:59;16.60;99.90
2997;DHT22;1508;48.744;9.110;2023-07-13T02:25:45;16.60;99.90
2997;DHT22;1508;48.744;9.110;2023-07-13T02:28:31;16.60;99.90
2997;DHT22;1508;48.744;9.110;2023-07-13T02:31:17;16.60;99.90
2997;DHT22;1508;48.744;9.110;2023-07-13T02:34:03;16.60;99.90
2997;DHT22;1508;48.744;9.110;2023-07-13T02:36:48;16.60;99.90
2997;DHT22;1508;48.744;9.110;2023-07-13T02:39:34;16.50;99.90
2997;DHT22;1508;48.744;9.110;2023-07-13T02:42:20;16.50;99.90
2997;DHT22;1508;48.744;9.110;2023-07-13T02:45:07;16.40;99.90
2997;DHT22;1508;48.744;9.110;2023-07-13T02:47:53;16.40;99.90
2997;DHT22;1508;48.744;9.110;2023-07-13T02:50:39;16.40;99.90
2997;DHT22;1508;48.744;9.110;2023-07-13T02:53:25;16.20;99.90
2997;DHT22;1508;48.744;9.110;2023-07-13T02:56:10;16.10;99.90
2997;DHT22;1508;48.744;9.110;2023-07-13T02:58:56;16.00;99.90
2997;DHT22;1508;48.744;9.110;2023-07-13T03:01:42;16.00;99.90
2997;DHT22;1508;48.744;9.110;2023-07-13T03:04:28;16.00;99.90
2997;DHT22;1508;48.744;9.110;2023-07-13T03:07:14;16.00;99.90
2997;DHT22;1508;48.744;9.110;2023-07-13T03:09:59;16.00;99.90
2997;DHT22;1508;48.744;9.110;2023-07-13T03:12:45;16.00;99.90
2997;DHT22;1508;48.744;9.110;2023-07-13T03:15:31;16.00;99.90
2997;DHT22;1508;48.744;9.110;2023-07-13T03:18:17;16.00;99.90
2997;DHT22;1508;48.744;9.110;2023-07-13T03:21:03;16.00;99.90
2997;DHT22;1508;48.744;9.110;2023-07-13T03:23:49;15.90;99.90
2997;DHT22;1508;48.744;9.110;2023-07-13T03:26:34;16.00;99.90
2997;DHT22;1508;48.744;9.110;2023-07-13T03:29:20;16.10;99.90
2997;DHT22;1508;48.744;9.110;2023-07-13T03:32:06;16.20;99.90
2997;DHT22;1508;48.744;9.110;2023-07-13T03:34:52;16.20;99.90
2997;DHT22;1508;48.744;9.110;2023-07-13T03:37:37;16.30;99.90
2997;DHT22;1508;48.744;9.110;2023-07-13T03:40:23;16.40;99.90
2997;DHT22;1508;48.744;9.110;2023-07-13T03:43:09;16.50;99.90
2997;DHT22;1508;48.744;9.110;2023-07-13T03:45:55;16.60;99.90
2997;DHT22;1508;48.744;9.110;2023-07-13T03:48:41;16.70;99.90
2997;DHT22;1508;48.744;9.110;2023-07-13T03:51:27;16.70;99.90
2997;DHT22;1508;48.744;9.110;2023-07-13T03:54:13;16.80;99.90
2997;DHT22;1508;48.744;9.110;2023-07-13T03:56:59;16.90;99.90
2997;DHT22;1508;48.744;9.110;2023-07-13T03:59:45;17.00;99.90
2997;DHT22;1508;48.744;9.110;2023-07-13T04:02:30;17.00;99.90
2997;DHT22;1508;48.744;9.110;2023-07-13T04:05:16;17.10;99.90
2997;DHT22;1508;48.744;9.110;2023-07-13T04:08:02;17.10;99.90
2997;DHT22;1508;48.744;9.110;2023-07-13T04:10:48;17.10;99.90
2997;DHT22;1508;48.744;9.110;2023-07-13T04:13:33;17.00;99.90
2997;DHT22;1508;48.744;9.110;2023-07-13T04:16:19;17.10;99.90
2997;DHT22;1508;48.744;9.110;2023-07-13T04:19:05;17.10;99.90
2997;DHT22;1508;48.744;9.110;2023-07-13T04:21:51;17.30;99.90
2997;DHT22;1508;48.744;9.110;2023-07-13T04:24:37;17.40;99.90
2997;DHT22;1508;48.744;9.110;2023-07-13T04:27:22;17.30;99.90
2997;DHT22;1508;48.744;9.110;2023-07-13T04:30:08;17.30;99.90
2997;DHT22;1508;48.744;9.110;2023-07-13T04:32:54;17.30;99.90
2997;DHT22;1508;48.744;9.110;2023-07-13T04:35:40;17.40;99.90
2997;DHT22;1508;48.744;9.110;2023-07-13T04:38:27;17.40;99.90
2997;DHT22;1508;48.744;9.110;2023-07-13T04:41:15;17.50;99.90
2997;DHT22;1508;48.744;9.110;2023-07-13T04:44:01;17.50;99.90
2997;DHT22;1508;48.744;9.110;2023-07-13T04:46:46;17.50;99.90
2997;DHT22;1508;48.744;9.110;2023-07-13T04:49:32;17.40;99.90
2997;DHT22;1508;48.744;9.110;2023-07-13T04:52:18;17.30;99.90
2997;DHT22;1508;48.744;9.110;2023-07-13T04:55:04;17.20;99.90
2997;DHT22;1508;48.744;9.110;2023-07-13T04:57:50;17.30;99.90
2997;DHT22;1508;48.744;9.110;2023-07-13T05:00:36;17.50;99.90
2997;DHT22;1508;48.744;9.110;2023-07-13T05:03:22;17.50;99.90
2997;DHT22;1508;48.744;9.110;2023-07-13T05:06:08;17.50;99.90
2997;DHT22;1508;48.744;9.110;2023-07-13T05:08:54;17.50;99.90
2997;DHT22;1508;48.744;9.110;2023-07-13T05:11:40;17.50;99.90
2997;DHT22;1508;48.744;9.110;2023-07-13T05:14:25;17.60;99.90
2997;DHT22;1508;48.744;9.110;2023-07-13T05:17:11;17.60;99.90
2997;DHT22;1508;48.744;9.110;2023-07-13T05:19:57;17.70;99.90
2997;DHT22;1508;48.744;9.110;2023-07-13T05:22:42;17.60;99.90
2997;DHT22;1508;48.744;9.110;2023-07-13T05:25:28;17.30;99.90
2997;DHT22;1508;48.744;9.110;2023-07-13T05:28:14;17.30;99.90
2997;DHT22;1508;48.744;9.110;2023-07-13T05:31:00;17.30;99.90
2997;DHT22;1508;48.744;9.110;2023-07-13T05:33:45;17.30;99.90
2997;DHT22;1508;48.744;9.110;2023-07-13T05:36:31;17.40;99.90
2997;DHT22;1508;48.744;9.110;2023-07-13T05:39:17;17.80;99.90
2997;DHT22;1508;48.744;9.110;2023-07-13T05:42:03;18.00;99.90
2997;DHT22;1508;48.744;9.110;2023-07-13T05:44:48;18.20;99.90
2997;DHT22;1508;48.744;9.110;2023-07-13T05:47:34;18.50;99.90
2997;DHT22;1508;48.744;9.110;2023-07-13T05:50:20;18.40;99.90
2997;DHT22;1508;48.744;9.110;2023-07-13T05:53:06;18.50;99.90
2997;DHT22;1508;48.744;9.110;2023-07-13T05:55:53;18.80;99.90
2997;DHT22;1508;48.744;9.110;2023-07-13T05:58:39;18.80;99.90
2997;DHT22;1508;48.744;9.110;2023-07-13T06:01:25;19.00;99.90
2997;DHT22;1508;48.744;9.110;2023-07-13T06:04:10;19.00;99.90
2997;DHT22;1508;48.744;9.110;2023-07-13T06:06:56;19.20;99.90
2997;DHT22;1508;48.744;9.110;2023-07-13T06:09:42;19.60;99.90
2997;DHT22;1508;48.744;9.110;2023-07-13T06:12:27;20.10;99.90
2997;DHT22;1508;48.744;9.110;2023-07-13T06:15:13;20.40;99.90
2997;DHT22;1508;48.744;9.110;2023-07-13T06:17:59;20.70;99.90
2997;DHT22;1508;48.744;9.110;2023-07-13T06:20:45;20.50;99.90
2997;DHT22;1508;48.744;9.110;2023-07-13T06:23:30;20.40;99.90
2997;DHT22;1508;48.744;9.110;2023-07-13T06:26:17;20.40;99.90
2997;DHT22;1508;48.744;9.110;2023-07-13T06:29:03;19.90;99.90
2997;DHT22;1508;48.744;9.110;2023-07-13T06:31:48;20.10;99.90
2997;DHT22;1508;48.744;9.110;2023-07-13T06:34:34;20.30;99.90
2997;DHT22;1508;48.744;9.110;2023-07-13T06:37:20;20.00;99.90
2997;DHT22;1508;48.744;9.110;2023-07-13T06:40:06;19.70;99.90
2997;DHT22;1508;48.744;9.110;2023-07-13T06:42:52;19.70;99.90
2997;DHT22;1508;48.744;9.110;2023-07-13T06:45:44;20.20;99.90
2997;DHT22;1508;48.744;9.110;2023-07-13T06:48:30;20.50;99.90
2997;DHT22;1508;48.744;9.110;2023-07-13T06:51:16;20.90;99.90
2997;DHT22;1508;48.744;9.110;2023-07-13T06:54:02;21.40;99.90
2997;DHT22;1508;48.744;9.110;2023-07-13T06:56:48;21.80;99.90
2997;DHT22;1508;48.744;9.110;2023-07-13T06:59:34;21.60;99.90
2997;DHT22;1508;48.744;9.110;2023-07-13T07:02:20;21.80;99.90
2997;DHT22;1508;48.744;9.110;2023-07-13T07:05:05;21.10;99.90
2997;DHT22;1508;48.744;9.110;2023-07-13T07:07:52;20.80;99.90
2997;DHT22;1508;48.744;9.110;2023-07-13T07:10:38;20.40;99.90
2997;DHT22;1508;48.744;9.110;2023-07-13T07:13:23;21.00;99.90
2997;DHT22;1508;48.744;9.110;2023-07-13T07:16:09;21.50;99.90
2997;DHT22;1508;48.744;9.110;2023-07-13T07:18:55;21.70;99.90
2997;DHT22;1508;48.744;9.110;2023-07-13T07:21:40;21.10;99.90
2997;DHT22;1508;48.744;9.110;2023-07-13T07:24:26;21.30;99.90
2997;DHT22;1508;48.744;9.110;2023-07-13T07:27:12;20.80;99.90
2997;DHT22;1508;48.744;9.110;2023-07-13T07:29:58;20.70;99.90
2997;DHT22;1508;48.744;9.110;2023-07-13T07:32:44;20.50;99.90
2997;DHT22;1508;48.744;9.110;2023-07-13T07:35:30;20.50;99.90
2997;DHT22;1508;48.744;9.110;2023-07-13T07:38:15;20.60;99.90
2997;DHT22;1508;48.744;9.110;2023-07-13T07:41:04;20.70;99.90
2997;DHT22;1508;48.744;9.110;2023-07-13T07:43:50;21.00;99.90
2997;DHT22;1508;48.744;9.110;2023-07-13T07:46:36;21.20;99.90
2997;DHT22;1508;48.744;9.110;2023-07-13T07:49:22;20.80;99.90
2997;DHT22;1508;48.744;9.110;2023-07-13T07:52:07;20.90;99.90
2997;DHT22;1508;48.744;9.110;2023-07-13T07:54:53;21.00;99.90
2997;DHT22;1508;48.744;9.110;2023-07-13T07:57:39;20.90;99.90
2997;DHT22;1508;48.744;9.110;2023-07-13T08:00:25;20.80;99.90
2997;DHT22;1508;48.744;9.110;2023-07-13T08:03:10;20.90;99.90
2997;DHT22;1508;48.744;9.110;2023-07-13T08:05:56;21.00;99.90
2997;DHT22;1508;48.744;9.110;2023-07-13T08:08:42;21.30;99.90
2997;DHT22;1508;48.744;9.110;2023-07-13T08:11:27;21.20;99.90
2997;DHT22;1508;48.744;9.110;2023-07-13T08:14:13;21.60;99.90
2997;DHT22;1508;48.744;9.110;2023-07-13T08:16:59;21.70;99.90
2997;DHT22;1508;48.744;9.110;2023-07-13T08:19:45;21.50;99.90
2997;DHT22;1508;48.744;9.110;2023-07-13T08:22:31;21.60;99.90
2997;DHT22;1508;48.744;9.110;2023-07-13T08:25:16;21.70;99.90
2997;DHT22;1508;48.744;9.110;2023-07-13T08:28:03;21.70;99.90
2997;DHT22;1508;48.744;9.110;2023-07-13T08:30:48;21.60;99.90
2997;DHT22;1508;48.744;9.110;2023-07-13T08:33:35;22.10;99.90
2997;DHT22;1508;48.744;9.110;2023-07-13T08:36:21;21.90;99.90
2997;DHT22;1508;48.744;9.110;2023-07-13T08:39:07;22.10;99.90
2997;DHT22;1508;48.744;9.110;2023-07-13T08:41:53;22.50;99.90
2997;DHT22;1508;48.744;9.110;2023-07-13T08:44:49;22.80;99.90
2997;DHT22;1508;48.744;9.110;2023-07-13T08:47:39;22.90;99.90
2997;DHT22;1508;48.744;9.110;2023-07-13T08:50:28;22.40;99.90
2997;DHT22;1508;48.744;9.110;2023-07-13T08:53:15;22.00;99.90
2997;DHT22;1508;48.744;9.110;2023-07-13T08:56:02;22.40;99.90
2997;DHT22;1508;48.744;9.110;2023-07-13T08:58:50;22.50;99.90
2997;DHT22;1508;48.744;9.110;2023-07-13T09:10:27;21.90;99.90
2997;DHT22;1508;48.744;9.110;2023-07-13T09:16:08;22.30;99.90
2997;DHT22;1508;48.744;9.110;2023-07-13T09:18:56;22.50;99.90
2997;DHT22;1508;48.744;9.110;2023-07-13T09:21:44;22.30;99.90
2997;DHT22;1508;48.744;9.110;2023-07-13T09:27:43;23.20;99.90
2997;DHT22;1508;48.744;9.110;2023-07-13T09:33:34;22.20;99.90
2997;DHT22;1508;48.744;9.110;2023-07-13T09:39:15;22.70;99.90
2997;DHT22;1508;48.744;9.110;2023-07-13T09:44:57;23.30;99.90
2997;DHT22;1508;48.744;9.110;2023-07-13T09:47:43;23.50;99.90
2997;DHT22;1508;48.744;9.110;2023-07-13T09:50:29;23.00;99.90
2997;DHT22;1508;48.744;9.110;2023-07-13T09:53:16;22.70;99.90
2997;DHT22;1508;48.744;9.110;2023-07-13T09:56:02;23.10;99.90
2997;DHT22;1508;48.744;9.110;2023-07-13T09:58:48;22.80;99.90
2997;DHT22;1508;48.744;9.110;2023-07-13T10:01:35;22.80;99.90
2997;DHT22;1508;48.744;9.110;2023-07-13T10:04:26;22.70;99.90
2997;DHT22;1508;48.744;9.110;2023-07-13T10:07:12;23.10;99.90
2997;DHT22;1508;48.744;9.110;2023-07-13T10:10:00;23.10;99.90
2997;DHT22;1508;48.744;9.110;2023-07-13T10:12:46;22.80;99.90
2997;DHT22;1508;48.744;9.110;2023-07-13T10:15:32;23.00;99.90
2997;DHT22;1508;48.744;9.110;2023-07-13T10:18:18;23.30;99.90
2997;DHT22;1508;48.744;9.110;2023-07-13T10:21:13;23.80;99.90
2997;DHT22;1508;48.744;9.110;2023-07-13T10:30:09;23.30;99.90
2997;DHT22;1508;48.744;9.110;2023-07-13T10:32:58;23.30;99.90
2997;DHT22;1508;48.744;9.110;2023-07-13T10:35:44;23.90;99.90
2997;DHT22;1508;48.744;9.110;2023-07-13T10:38:30;23.50;99.90
2997;DHT22;1508;48.744;9.110;2023-07-13T10:41:17;23.70;99.90
2997;DHT22;1508;48.744;9.110;2023-07-13T10:44:03;24.00;99.90
2997;DHT22;1508;48.744;9.110;2023-07-13T10:46:49;24.60;99.90
2997;DHT22;1508;48.744;9.110;2023-07-13T10:49:35;24.30;99.90
2997;DHT22;1508;48.744;9.110;2023-07-13T10:58:21;24.40;99.90
2997;DHT22;1508;48.744;9.110;2023-07-13T11:01:14;24.30;99.90
2997;DHT22;1508;48.744;9.110;2023-07-13T11:04:00;24.80;99.90
2997;DHT22;1508;48.744;9.110;2023-07-13T11:06:48;25.70;99.90
2997;DHT22;1508;48.744;9.110;2023-07-13T11:15:10;25.40;99.90
2997;DHT22;1508;48.744;9.110;2023-07-13T11:17:56;25.30;99.90
2997;DHT22;1508;48.744;9.110;2023-07-13T11:20:42;25.10;99.90
2997;DHT22;1508;48.744;9.110;2023-07-13T11:23:28;24.40;99.90
2997;DHT22;1508;48.744;9.110;2023-07-13T11:32:25;24.00;99.90
2997;DHT22;1508;48.744;9.110;2023-07-13T11:35:20;23.60;99.90
2997;DHT22;1508;48.744;9.110;2023-07-13T11:41:32;24.60;99.90
2997;DHT22;1508;48.744;9.110;2023-07-13T11:44:20;24.90;99.90
2997;DHT22;1508;48.744;9.110;2023-07-13T11:47:10;25.20;99.90
2997;DHT22;1508;48.744;9.110;2023-07-13T11:49:56;24.80;99.90
2997;DHT22;1508;48.744;9.110;2023-07-13T11:52:42;25.20;99.90
2997;DHT22;1508;48.744;9.110;2023-07-13T11:55:28;25.30;99.90
2997;DHT22;1508;48.744;9.110;2023-07-13T11:58:16;24.80;99.90
2997;DHT22;1508;48.744;9.110;2023-07-13T12:01:02;24.00;99.90
2997;DHT22;1508;48.744;9.110;2023-07-13T12:03:48;23.70;99.90
2997;DHT22;1508;48.744;9.110;2023-07-13T12:06:35;23.60;99.90
2997;DHT22;1508;48.744;9.110;2023-07-13T12:09:21;24.00;99.90
2997;DHT22;1508;48.744;9.110;2023-07-13T12:12:10;24.20;99.90
2997;DHT22;1508;48.744;9.110;2023-07-13T12:14:56;24.40;99.40
2997;DHT22;1508;48.744;9.110;2023-07-13T12:17:45;25.10;99.90
2997;DHT22;1508;48.744;9.110;2023-07-13T12:20:33;25.00;99.20
2997;DHT22;1508;48.744;9.110;2023-07-13T12:23:22;25.50;99.50
2997;DHT22;1508;48.744;9.110;2023-07-13T12:26:09;26.10;99.40
2997;DHT22;1508;48.744;9.110;2023-07-13T12:28:55;26.20;98.90
2997;DHT22;1508;48.744;9.110;2023-07-13T12:31:42;25.20;97.60
2997;DHT22;1508;48.744;9.110;2023-07-13T12:34:28;24.70;98.30
2997;DHT22;1508;48.744;9.110;2023-07-13T12:37:13;24.50;97.90
2997;DHT22;1508;48.744;9.110;2023-07-13T12:39:59;24.50;98.40
2997;DHT22;1508;48.744;9.110;2023-07-13T12:42:49;24.70;98.50
2997;DHT22;1508;48.744;9.110;2023-07-13T12:45:35;25.00;98.60
2997;DHT22;1508;48.744;9.110;2023-07-13T12:48:21;25.00;98.30
2997;DHT22;1508;48.744;9.110;2023-07-13T12:51:09;25.30;99.20
2997;DHT22;1508;48.744;9.110;2023-07-13T12:53:58;25.60;97.70
2997;DHT22;1508;48.744;9.110;2023-07-13T12:56:50;25.40;97.20
2997;DHT22;1508;48.744;9.110;2023-07-13T12:59:37;25.20;97.90
2997;DHT22;1508;48.744;9.110;2023-07-13T13:02:30;25.00;97.50
2997;DHT22;1508;48.744;9.110;2023-07-13T13:05:16;24.90;97.40
2997;DHT22;1508;48.744;9.110;2023-07-13T13:08:02;24.90;96.80
2997;DHT22;1508;48.744;9.110;2023-07-13T13:10:48;24.80;96.90
2997;DHT22;1508;48.744;9.110;2023-07-13T13:13:33;24.90;97.20
2997;DHT22;1508;48.744;9.110;2023-07-13T13:16:23;24.90;96.20
2997;DHT22;1508;48.744;9.110;2023-07-13T13:19:19;25.30;97.50
2997;DHT22;1508;48.744;9.110;2023-07-13T13:22:07;24.90;96.00
2997;DHT22;1508;48.744;9.110;2023-07-13T13:24:53;24.60;96.00
2997;DHT22;1508;48.744;9.110;2023-07-13T13:27:39;24.70;96.60
2997;DHT22;1508;48.744;9.110;2023-07-13T13:30:25;24.90;96.30
2997;DHT22;1508;48.744;9.110;2023-07-13T13:33:12;25.10;95.80
2997;DHT22;1508;48.744;9.110;2023-07-13T13:35:58;25.50;95.80
2997;DHT22;1508;48.744;9.110;2023-07-13T13:38:44;25.50;94.60
2997;DHT22;1508;48.744;9.110;2023-07-13T13:41:30;25.40;94.80
2997;DHT22;1508;48.744;9.110;2023-07-13T13:44:16;25.20;95.20
2997;DHT22;1508;48.744;9.110;2023-07-13T13:47:02;24.70;94.50
2997;DHT22;1508;48.744;9.110;2023-07-13T13:49:48;24.80;95.10
2997;DHT22;1508;48.744;9.110;2023-07-13T13:52:33;24.80;95.10
2997;DHT22;1508;48.744;9.110;2023-07-13T13:55:20;25.10;95.80
2997;DHT22;1508;48.744;9.110;2023-07-13T13:58:06;25.10;95.60
2997;DHT22;1508;48.744;9.110;2023-07-13T14:00:51;25.30;96.10
2997;DHT22;1508;48.744;9.110;2023-07-13T14:03:37;25.10;95.10
2997;DHT22;1508;48.744;9.110;2023-07-13T14:06:23;25.10;94.80
2997;DHT22;1508;48.744;9.110;2023-07-13T14:09:10;25.10;94.90
2997;DHT22;1508;48.744;9.110;2023-07-13T14:11:56;25.10;95.90
2997;DHT22;1508;48.744;9.110;2023-07-13T14:14:42;25.50;95.90
2997;DHT22;1508;48.744;9.110;2023-07-13T14:17:27;25.80;94.40
2997;DHT22;1508;48.744;9.110;2023-07-13T14:20:13;25.10;95.10
2997;DHT22;1508;48.744;9.110;2023-07-13T14:22:59;25.00;95.50
2997;DHT22;1508;48.744;9.110;2023-07-13T14:25:45;25.20;95.30
2997;DHT22;1508;48.744;9.110;2023-07-13T14:28:31;25.20;94.90
2997;DHT22;1508;48.744;9.110;2023-07-13T14:31:17;25.30;95.30
2997;DHT22;1508;48.744;9.110;2023-07-13T14:34:03;24.90;95.40
2997;DHT22;1508;48.744;9.110;2023-07-13T14:36:49;25.00;95.30
2997;DHT22;1508;48.744;9.110;2023-07-13T14:39:35;24.80;94.80
2997;DHT22;1508;48.744;9.110;2023-07-13T14:42:21;24.80;95.30
2997;DHT22;1508;48.744;9.110;2023-07-13T14:45:17;24.80;95.70
2997;DHT22;1508;48.744;9.110;2023-07-13T14:48:04;24.90;95.50
2997;DHT22;1508;48.744;9.110;2023-07-13T14:50:53;24.50;95.60
2997;DHT22;1508;48.744;9.110;2023-07-13T14:53:39;24.40;95.90
2997;DHT22;1508;48.744;9.110;2023-07-13T14:56:25;24.30;95.30
2997;DHT22;1508;48.744;9.110;2023-07-13T14:59:10;24.20;95.70
2997;DHT22;1508;48.744;9.110;2023-07-13T15:01:56;24.30;95.30
2997;DHT22;1508;48.744;9.110;2023-07-13T15:04:42;24.40;96.00
2997;DHT22;1508;48.744;9.110;2023-07-13T15:07:28;24.60;95.60
2997;DHT22;1508;48.744;9.110;2023-07-13T15:13:16;24.50;95.60
2997;DHT22;1508;48.744;9.110;2023-07-13T15:16:02;24.40;96.20
2997;DHT22;1508;48.744;9.110;2023-07-13T15:18:48;24.40;95.50
2997;DHT22;1508;48.744;9.110;2023-07-13T15:21:34;24.10;95.70
2997;DHT22;1508;48.744;9.110;2023-07-13T15:24:20;24.10;95.70
2997;DHT22;1508;48.744;9.110;2023-07-13T15:27:09;23.90;95.90
2997;DHT22;1508;48.744;9.110;2023-07-13T15:29:55;23.80;96.40
2997;DHT22;1508;48.744;9.110;2023-07-13T15:32:44;23.70;96.20
2997;DHT22;1508;48.744;9.110;2023-07-13T15:35:30;23.70;96.40
2997;DHT22;1508;48.744;9.110;2023-07-13T15:38:20;23.90;96.30
2997;DHT22;1508;48.744;9.110;2023-07-13T15:41:13;24.00;95.90
2997;DHT22;1508;48.744;9.110;2023-07-13T15:44:05;24.20;96.40
2997;DHT22;1508;48.744;9.110;2023-07-13T15:46:50;24.20;96.30
2997;DHT22;1508;48.744;9.110;2023-07-13T15:49:36;24.20;96.20
2997;DHT22;1508;48.744;9.110;2023-07-13T15:52:23;24.30;96.20
2997;DHT22;1508;48.744;9.110;2023-07-13T15:55:10;24.20;95.60
2997;DHT22;1508;48.744;9.110;2023-07-13T15:57:56;24.30;96.10
2997;DHT22;1508;48.744;9.110;2023-07-13T16:00:42;24.00;95.00
2997;DHT22;1508;48.744;9.110;2023-07-13T16:03:28;24.10;95.30
2997;DHT22;1508;48.744;9.110;2023-07-13T16:09:03;24.20;95.20
2997;DHT22;1508;48.744;9.110;2023-07-13T16:11:49;24.00;95.00
2997;DHT22;1508;48.744;9.110;2023-07-13T16:14:35;24.00;95.00
2997;DHT22;1508;48.744;9.110;2023-07-13T16:17:21;24.00;95.40
2997;DHT22;1508;48.744;9.110;2023-07-13T16:20:07;24.20;95.20
2997;DHT22;1508;48.744;9.110;2023-07-13T16:22:53;24.00;94.90
2997;DHT22;1508;48.744;9.110;2023-07-13T16:25:40;24.00;94.90
2997;DHT22;1508;48.744;9.110;2023-07-13T16:28:25;24.00;95.30
2997;DHT22;1508;48.744;9.110;2023-07-13T16:31:11;24.00;94.90
2997;DHT22;1508;48.744;9.110;2023-07-13T16:33:57;24.10;95.10
2997;DHT22;1508;48.744;9.110;2023-07-13T16:36:43;23.90;94.60
2997;DHT22;1508;48.744;9.110;2023-07-13T16:39:28;23.80;94.80
2997;DHT22;1508;48.744;9.110;2023-07-13T16:42:14;23.80;95.10
2997;DHT22;1508;48.744;9.110;2023-07-13T16:45:00;23.70;95.00
2997;DHT22;1508;48.744;9.110;2023-07-13T16:47:46;23.70;95.40
2997;DHT22;1508;48.744;9.110;2023-07-13T16:50:32;23.80;95.70
2997;DHT22;1508;48.744;9.110;2023-07-13T16:53:19;23.80;95.60
2997;DHT22;1508;48.744;9.110;2023-07-13T16:56:05;23.80;95.90
2997;DHT22;1508;48.744;9.110;2023-07-13T16:58:54;23.70;96.00
2997;DHT22;1508;48.744;9.110;2023-07-13T17:01:40;23.80;95.60
2997;DHT22;1508;48.744;9.110;2023-07-13T17:04:26;23.60;96.10
2997;DHT22;1508;48.744;9.110;2023-07-13T17:07:12;23.50;95.80
2997;DHT22;1508;48.744;9.110;2023-07-13T17:09:58;23.60;96.40
2997;DHT22;1508;48.744;9.110;2023-07-13T17:17:52;23.50;96.10
2997;DHT22;1508;48.744;9.110;2023-07-13T17:20:39;23.50;96.40
2997;DHT22;1508;48.744;9.110;2023-07-13T17:23:25;23.50;96.10
2997;DHT22;1508;48.744;9.110;2023-07-13T17:26:11;23.60;96.30
2997;DHT22;1508;48.744;9.110;2023-07-13T17:28:57;23.60;95.80
2997;DHT22;1508;48.744;9.110;2023-07-13T17:31:43;23.50;95.90
2997;DHT22;1508;48.744;9.110;2023-07-13T17:34:29;23.40;95.70
2997;DHT22;1508;48.744;9.110;2023-07-13T17:37:15;23.50;95.90
2997;DHT22;1508;48.744;9.110;2023-07-13T17:40:03;23.40;95.90
2997;DHT22;1508;48.744;9.110;2023-07-13T17:42:50;23.20;96.20
2997;DHT22;1508;48.744;9.110;2023-07-13T17:45:36;23.30;96.60
2997;DHT22;1508;48.744;9.110;2023-07-13T17:48:22;23.50;96.30
2997;DHT22;1508;48.744;9.110;2023-07-13T17:51:09;23.30;96.60
2997;DHT22;1508;48.744;9.110;2023-07-13T17:53:55;23.30;96.70
2997;DHT22;1508;48.744;9.110;2023-07-13T17:56:41;23.30;96.50
2997;DHT22;1508;48.744;9.110;2023-07-13T17:59:27;23.10;96.20
2997;DHT22;1508;48.744;9.110;2023-07-13T18:02:16;23.10;96.70
2997;DHT22;1508;48.744;9.110;2023-07-13T18:05:03;23.00;96.60
2997;DHT22;1508;48.744;9.110;2023-07-13T18:07:49;22.90;96.80
2997;DHT22;1508;48.744;9.110;2023-07-13T18:10:34;23.00;97.20
2997;DHT22;1508;48.744;9.110;2023-07-13T18:13:20;23.30;97.30
2997;DHT22;1508;48.744;9.110;2023-07-13T18:16:25;23.20;97.20
2997;DHT22;1508;48.744;9.110;2023-07-13T18:19:29;23.40;97.10
2997;DHT22;1508;48.744;9.110;2023-07-13T18:22:16;23.20;97.20
2997;DHT22;1508;48.744;9.110;2023-07-13T18:25:05;23.00;97.10
2997;DHT22;1508;48.744;9.110;2023-07-13T18:27:57;22.80;97.40
2997;DHT22;1508;48.744;9.110;2023-07-13T18:30:49;22.80;97.60
2997;DHT22;1508;48.744;9.110;2023-07-13T18:33:36;22.60;97.60
2997;DHT22;1508;48.744;9.110;2023-07-13T18:36:22;22.50;98.00
2997;DHT22;1508;48.744;9.110;2023-07-13T18:39:11;22.40;98.10
